createdAt,value
2022-12-31T00:00:29.487Z,11.03
2022-12-31T00:02:56.970Z,11.02
2022-12-31T00:05:27.516Z,11.24
2022-12-31T00:07:54.318Z,11.25
2022-12-31T00:10:24.539Z,11.23
2022-12-31T00:12:54.086Z,11.33
2022-12-31T00:15:23.337Z,11.17
2022-12-31T00:17:50.280Z,11.25
2022-12-31T00:20:17.757Z,11.04
2022-12-31T00:22:47.935Z,11.12
2022-12-31T00:25:21.257Z,11.37
2022-12-31T00:27:52.813Z,11.51
2022-12-31T00:30:20.983Z,11.59
2022-12-31T00:33:00.388Z,11.41
2022-12-31T00:35:31.518Z,11.49
2022-12-31T00:37:58.379Z,11.43
2022-12-31T00:40:25.520Z,11.53
2022-12-31T00:43:02.749Z,11.40
2022-12-31T00:45:34.563Z,11.37
2022-12-31T00:48:04.523Z,11.55
2022-12-31T00:50:34.371Z,11.53
2022-12-31T00:53:04.814Z,11.56
2022-12-31T00:55:31.678Z,11.65
2022-12-31T00:58:04.415Z,11.59
2022-12-31T01:00:40.874Z,11.55
2022-12-31T01:03:15.140Z,11.34
2022-12-31T01:05:43.993Z,11.40
2022-12-31T01:08:13.851Z,11.45
2022-12-31T01:11:13.971Z,11.35
2022-12-31T01:13:46.398Z,11.29
2022-12-31T01:16:17.657Z,11.35
2022-12-31T01:18:53.800Z,11.06
2022-12-31T01:21:23.742Z,10.97
2022-12-31T01:23:50.782Z,10.96
2022-12-31T01:26:26.899Z,11.06
2022-12-31T01:29:03.013Z,11.25
2022-12-31T01:31:33.463Z,11.34
2022-12-31T01:34:08.357Z,11.43
2022-12-31T01:36:36.927Z,11.26
2022-12-31T01:39:06.253Z,11.27
2022-12-31T01:41:42.732Z,11.08
2022-12-31T01:44:25.010Z,11.24
2022-12-31T01:47:01.028Z,11.26
2022-12-31T01:49:45.834Z,11.36
2022-12-31T01:52:32.096Z,11.21
2022-12-31T01:55:13.623Z,11.24
2022-12-31T01:57:44.333Z,11.41
2022-12-31T02:00:14.913Z,11.28
2022-12-31T02:02:58.812Z,11.23
2022-12-31T02:05:40.866Z,11.29
2022-12-31T02:08:22.857Z,11.11
2022-12-31T02:10:52.843Z,11.18
2022-12-31T02:13:19.846Z,11.26
2022-12-31T02:16:24.876Z,11.17
2022-12-31T02:19:17.132Z,11.11
2022-12-31T02:22:01.188Z,11.27
2022-12-31T02:24:47.730Z,11.41
2022-12-31T02:27:41.066Z,11.42
2022-12-31T02:30:14.587Z,11.39
2022-12-31T02:33:24.603Z,11.27
2022-12-31T02:36:03.449Z,11.17
2022-12-31T02:38:34.774Z,11.18
2022-12-31T02:41:02.198Z,11.26
2022-12-31T02:43:29.216Z,11.35
2022-12-31T02:46:11.465Z,11.27
2022-12-31T02:49:06.605Z,11.43
2022-12-31T02:51:58.415Z,11.36
2022-12-31T02:54:48.616Z,11.41
2022-12-31T02:57:30.320Z,11.28
2022-12-31T03:00:31.004Z,11.41
2022-12-31T03:03:00.035Z,11.39
2022-12-31T03:05:33.689Z,11.34
2022-12-31T03:08:04.929Z,11.29
2022-12-31T03:10:35.010Z,11.30
2022-12-31T03:13:02.806Z,11.24
2022-12-31T03:15:39.304Z,11.28
2022-12-31T03:18:16.912Z,11.18
2022-12-31T03:21:10.012Z,11.04
2022-12-31T03:24:05.293Z,11.08
2022-12-31T03:26:32.692Z,10.99
2022-12-31T03:29:00.324Z,11.32
2022-12-31T03:31:27.553Z,11.41
2022-12-31T03:33:59.053Z,11.43
2022-12-31T03:36:26.680Z,11.48
2022-12-31T03:38:57.136Z,11.44
2022-12-31T03:41:27.026Z,11.51
2022-12-31T03:43:56.877Z,11.53
2022-12-31T03:46:23.744Z,11.44
2022-12-31T03:48:53.091Z,11.51
2022-12-31T03:51:19.918Z,11.42
2022-12-31T03:53:46.726Z,11.38
2022-12-31T03:56:16.708Z,11.41
2022-12-31T03:58:46.535Z,11.40
2022-12-31T04:01:16.445Z,11.35
2022-12-31T04:03:52.092Z,11.54
2022-12-31T04:06:24.595Z,11.49
2022-12-31T04:08:52.715Z,11.34
2022-12-31T04:11:25.044Z,11.40
2022-12-31T04:13:54.915Z,11.35
2022-12-31T04:16:22.338Z,11.76
2022-12-31T04:18:54.864Z,11.88
2022-12-31T04:21:34.765Z,11.77
2022-12-31T04:24:03.102Z,11.95
2022-12-31T04:26:35.981Z,11.80
2022-12-31T04:29:02.898Z,11.67
2022-12-31T04:31:31.486Z,11.75
2022-12-31T04:33:59.579Z,11.79
2022-12-31T04:36:29.461Z,11.86
2022-12-31T04:39:02.413Z,11.98
2022-12-31T04:41:31.452Z,11.94
2022-12-31T04:43:59.756Z,12.24
2022-12-31T04:49:13.167Z,12.25
2022-12-31T04:51:44.896Z,12.07
2022-12-31T04:54:26.560Z,11.87
2022-12-31T04:57:02.414Z,11.58
2022-12-31T04:59:32.412Z,11.70
2022-12-31T05:02:01.889Z,11.72
2022-12-31T05:04:28.961Z,11.76
2022-12-31T05:06:58.687Z,11.66
2022-12-31T05:09:34.935Z,11.52
2022-12-31T05:12:01.823Z,11.42
2022-12-31T05:14:28.621Z,11.42
2022-12-31T05:17:04.537Z,11.39
2022-12-31T05:19:31.417Z,10.96
2022-12-31T05:22:21.526Z,10.96
2022-12-31T05:24:48.509Z,11.44
2022-12-31T05:27:15.303Z,11.04
2022-12-31T05:29:53.460Z,11.19
2022-12-31T05:32:23.201Z,10.65
2022-12-31T05:34:50.057Z,10.57
2022-12-31T05:37:16.898Z,10.64
2022-12-31T05:39:46.881Z,10.53
2022-12-31T05:42:16.214Z,11.01
2022-12-31T05:44:43.086Z,11.17
2022-12-31T05:47:10.037Z,10.74
2022-12-31T05:49:45.870Z,11.16
2022-12-31T05:52:12.806Z,11.19
2022-12-31T05:54:39.783Z,10.81
2022-12-31T05:57:08.955Z,10.76
2022-12-31T05:59:36.059Z,10.63
2022-12-31T06:02:02.924Z,10.29
2022-12-31T06:04:31.912Z,10.27
2022-12-31T06:07:01.914Z,10.35
2022-12-31T06:09:28.817Z,10.33
2022-12-31T06:11:55.820Z,10.31
2022-12-31T06:14:22.937Z,10.41
2022-12-31T06:16:51.329Z,10.58
2022-12-31T06:19:18.345Z,10.85
2022-12-31T06:21:45.410Z,10.68
2022-12-31T06:24:12.530Z,10.48
2022-12-31T06:26:39.470Z,10.51
2022-12-31T06:29:12.207Z,10.52
2022-12-31T06:31:41.225Z,10.53
2022-12-31T06:34:08.184Z,10.75
2022-12-31T06:36:39.721Z,10.66
2022-12-31T06:39:09.544Z,10.72
2022-12-31T06:41:36.562Z,10.66
2022-12-31T06:44:03.505Z,10.76
2022-12-31T06:46:30.288Z,10.56
2022-12-31T06:48:57.125Z,10.38
2022-12-31T06:51:25.540Z,10.45
2022-12-31T06:53:52.594Z,10.93
2022-12-31T06:56:33.027Z,10.53
2022-12-31T06:59:01.593Z,10.55
2022-12-31T07:01:36.774Z,10.33
2022-12-31T07:04:29.188Z,10.46
2022-12-31T07:07:17.435Z,10.87
2022-12-31T07:10:22.773Z,10.91
2022-12-31T07:13:23.778Z,10.76
2022-12-31T07:16:05.237Z,10.51
2022-12-31T07:18:43.553Z,10.51
2022-12-31T07:21:17.638Z,10.87
2022-12-31T07:23:47.521Z,10.71
2022-12-31T07:26:31.539Z,11.04
2022-12-31T07:29:15.064Z,10.84
2022-12-31T07:32:09.064Z,10.63
2022-12-31T07:35:04.021Z,10.71
2022-12-31T07:37:57.586Z,10.38
2022-12-31T07:40:57.814Z,10.83
2022-12-31T07:43:50.368Z,10.81
2022-12-31T07:46:43.648Z,10.95
2022-12-31T07:49:12.580Z,10.83
2022-12-31T07:51:46.280Z,10.78
2022-12-31T07:54:16.024Z,10.90
2022-12-31T07:56:44.455Z,10.87
2022-12-31T07:59:24.670Z,11.22
2022-12-31T08:02:03.403Z,11.20
2022-12-31T08:04:53.060Z,11.34
2022-12-31T08:07:57.131Z,11.09
2022-12-31T08:10:39.672Z,10.89
2022-12-31T08:13:10.988Z,11.25
2022-12-31T08:15:41.743Z,11.63
2022-12-31T08:18:17.656Z,11.95
2022-12-31T08:21:12.555Z,12.04
2022-12-31T08:23:48.524Z,11.89
2022-12-31T08:26:37.303Z,11.85
2022-12-31T08:29:22.832Z,11.86
2022-12-31T08:32:17.159Z,11.61
2022-12-31T08:34:55.965Z,11.71
2022-12-31T08:37:51.035Z,11.88
2022-12-31T08:40:45.517Z,11.99
2022-12-31T08:43:19.460Z,11.82
2022-12-31T08:45:51.759Z,11.88
2022-12-31T08:48:23.251Z,11.91
2022-12-31T08:50:50.279Z,11.81
2022-12-31T08:53:17.402Z,11.99
2022-12-31T08:55:46.506Z,12.14
2022-12-31T08:58:28.054Z,12.32
2022-12-31T09:00:59.489Z,12.40
2022-12-31T09:03:50.870Z,12.37
2022-12-31T09:06:41.318Z,12.49
2022-12-31T09:09:26.536Z,12.21
2022-12-31T09:12:36.410Z,12.13
2022-12-31T09:15:14.275Z,12.13
2022-12-31T09:17:52.524Z,12.24
2022-12-31T09:20:44.724Z,12.27
2022-12-31T09:23:13.038Z,12.38
2022-12-31T09:26:04.177Z,12.36
2022-12-31T09:28:43.445Z,12.24
2022-12-31T09:31:30.458Z,12.27
2022-12-31T09:34:09.882Z,12.42
2022-12-31T09:36:54.279Z,12.34
2022-12-31T09:39:46.882Z,12.30
2022-12-31T09:42:44.203Z,12.28
2022-12-31T09:45:38.344Z,12.32
2022-12-31T09:48:28.348Z,12.36
2022-12-31T09:51:25.502Z,12.42
2022-12-31T09:54:28.386Z,12.38
2022-12-31T09:57:18.459Z,12.59
2022-12-31T10:00:08.861Z,12.60
2022-12-31T10:02:49.685Z,12.71
2022-12-31T10:05:52.230Z,12.56
2022-12-31T10:08:51.390Z,12.71
2022-12-31T10:11:58.952Z,12.80
2022-12-31T10:15:25.161Z,12.60
2022-12-31T10:18:44.244Z,12.75
2022-12-31T10:21:47.449Z,12.94
2022-12-31T10:24:32.989Z,13.12
2022-12-31T10:27:27.851Z,13.13
2022-12-31T10:30:14.909Z,13.17
2022-12-31T10:33:02.525Z,13.21
2022-12-31T10:35:54.825Z,13.23
2022-12-31T10:38:58.015Z,13.14
2022-12-31T10:41:55.803Z,13.04
2022-12-31T10:44:46.966Z,12.99
2022-12-31T10:47:22.786Z,12.94
2022-12-31T10:50:34.558Z,13.02
2022-12-31T10:53:24.035Z,12.98
2022-12-31T10:56:25.950Z,12.89
2022-12-31T10:59:11.701Z,12.97
2022-12-31T11:02:16.148Z,12.95
2022-12-31T11:04:58.254Z,13.05
2022-12-31T11:07:44.087Z,13.05
2022-12-31T11:10:41.668Z,13.11
2022-12-31T11:13:34.024Z,13.25
2022-12-31T11:16:24.586Z,13.25
2022-12-31T11:19:06.418Z,13.28
2022-12-31T11:21:52.872Z,13.31
2022-12-31T11:24:24.992Z,13.24
2022-12-31T11:27:12.787Z,13.21
2022-12-31T11:30:03.497Z,13.29
2022-12-31T11:32:56.749Z,13.30
2022-12-31T11:35:43.714Z,13.36
2022-12-31T11:38:26.369Z,13.32
2022-12-31T11:41:31.558Z,13.25
2022-12-31T11:44:19.737Z,13.26
2022-12-31T11:47:02.421Z,13.20
2022-12-31T11:49:29.114Z,13.30
2022-12-31T11:52:21.817Z,13.31
2022-12-31T11:54:52.367Z,13.29
2022-12-31T11:57:36.515Z,13.22
2022-12-31T12:00:20.872Z,13.25
2022-12-31T12:03:05.278Z,13.18
2022-12-31T12:05:37.020Z,13.25
2022-12-31T12:08:22.540Z,13.19
2022-12-31T12:10:56.801Z,13.17
2022-12-31T12:13:27.548Z,13.21
2022-12-31T12:16:04.679Z,13.22
2022-12-31T12:18:38.945Z,13.22
2022-12-31T12:21:12.518Z,13.25
2022-12-31T12:23:40.763Z,13.40
2022-12-31T12:26:29.210Z,13.28
2022-12-31T12:29:17.524Z,13.36
2022-12-31T12:32:20.900Z,13.27
2022-12-31T12:34:58.585Z,13.29
2022-12-31T12:37:35.677Z,13.33
2022-12-31T12:40:09.616Z,13.28
2022-12-31T12:42:36.556Z,13.23
2022-12-31T12:45:09.688Z,13.27
2022-12-31T12:47:37.190Z,13.46
2022-12-31T12:50:05.325Z,13.35
2022-12-31T12:53:12.145Z,13.44
2022-12-31T12:56:23.302Z,13.40
2022-12-31T12:59:24.475Z,13.40
2022-12-31T13:02:08.814Z,13.39
2022-12-31T13:05:07.763Z,13.34
2022-12-31T13:08:04.328Z,13.25
2022-12-31T13:11:01.470Z,13.37
2022-12-31T13:14:00.254Z,13.47
2022-12-31T13:16:39.584Z,13.51
2022-12-31T13:19:23.103Z,13.42
2022-12-31T13:22:16.594Z,13.40
2022-12-31T13:25:31.029Z,13.38
2022-12-31T13:28:05.408Z,13.37
2022-12-31T13:30:43.463Z,13.36
2022-12-31T13:33:18.818Z,13.43
2022-12-31T13:35:51.082Z,13.56
2022-12-31T13:38:21.776Z,13.55
2022-12-31T13:40:55.647Z,13.57
2022-12-31T13:44:05.792Z,13.49
2022-12-31T13:46:47.151Z,13.53
2022-12-31T13:49:21.473Z,13.49
2022-12-31T13:52:18.112Z,13.44
2022-12-31T13:55:04.843Z,13.43
2022-12-31T13:57:52.633Z,13.51
2022-12-31T14:00:31.444Z,13.52
2022-12-31T14:03:24.884Z,13.73
2022-12-31T14:06:00.364Z,13.59
2022-12-31T14:08:28.034Z,13.55
2022-12-31T14:11:09.442Z,13.48
2022-12-31T14:14:13.240Z,13.38
2022-12-31T14:17:20.523Z,13.27
2022-12-31T14:20:02.103Z,13.25
2022-12-31T14:22:38.028Z,13.28
2022-12-31T14:25:22.550Z,13.35
2022-12-31T14:27:52.762Z,13.40
2022-12-31T14:30:25.950Z,13.30
2022-12-31T14:33:30.300Z,13.36
2022-12-31T14:36:21.427Z,13.21
2022-12-31T14:39:20.731Z,13.26
2022-12-31T14:42:06.488Z,13.18
2022-12-31T14:45:05.481Z,13.04
2022-12-31T14:47:47.886Z,13.26
2022-12-31T14:50:21.281Z,13.29
2022-12-31T14:52:51.149Z,13.25
2022-12-31T14:55:29.218Z,13.12
2022-12-31T14:58:27.037Z,13.03
2022-12-31T15:00:59.850Z,13.03
2022-12-31T15:03:47.044Z,13.05
2022-12-31T15:06:23.052Z,13.22
2022-12-31T15:09:38.343Z,13.06
2022-12-31T15:12:07.202Z,13.03
2022-12-31T15:15:02.965Z,13.13
2022-12-31T15:18:14.076Z,13.05
2022-12-31T15:21:01.191Z,13.07
2022-12-31T15:23:47.021Z,13.08
2022-12-31T15:26:24.711Z,13.27
2022-12-31T15:29:21.458Z,13.22
2022-12-31T15:31:50.123Z,13.30
2022-12-31T15:34:39.399Z,13.21
2022-12-31T15:37:26.399Z,13.09
2022-12-31T15:40:09.797Z,13.04
2022-12-31T15:42:58.882Z,13.14
2022-12-31T15:45:37.593Z,13.19
2022-12-31T15:48:14.811Z,13.19
2022-12-31T15:50:49.355Z,13.35
2022-12-31T15:53:28.983Z,13.24
2022-12-31T15:55:58.389Z,13.11
2022-12-31T15:58:35.967Z,13.16
2022-12-31T16:01:13.424Z,13.21
2022-12-31T16:03:46.072Z,13.30
2022-12-31T16:06:15.237Z,13.15
2022-12-31T16:08:46.403Z,13.31
2022-12-31T16:11:13.410Z,13.24
2022-12-31T16:13:44.410Z,13.13
2022-12-31T16:16:28.867Z,13.02
2022-12-31T16:18:58.085Z,13.02
2022-12-31T16:21:36.116Z,12.88
2022-12-31T16:24:25.062Z,12.85
2022-12-31T16:26:59.363Z,12.90
2022-12-31T16:29:31.041Z,12.85
2022-12-31T16:31:58.622Z,12.80
2022-12-31T16:34:29.885Z,12.80
2022-12-31T16:37:02.575Z,12.76
2022-12-31T16:39:45.391Z,12.79
2022-12-31T16:42:20.185Z,12.72
2022-12-31T16:45:33.313Z,12.88
2022-12-31T16:48:17.204Z,13.01
2022-12-31T16:50:54.942Z,13.07
2022-12-31T16:53:30.008Z,12.99
2022-12-31T16:56:09.358Z,13.00
2022-12-31T16:58:44.096Z,12.87
2022-12-31T17:03:47.529Z,12.77
2022-12-31T17:06:20.342Z,12.70
2022-12-31T17:09:00.951Z,12.63
2022-12-31T17:11:33.221Z,12.60
2022-12-31T17:14:09.624Z,12.69
2022-12-31T17:17:03.151Z,12.65
2022-12-31T17:19:39.046Z,12.56
2022-12-31T17:22:36.997Z,12.67
2022-12-31T17:25:07.428Z,12.66
2022-12-31T17:27:39.895Z,12.68
2022-12-31T17:30:37.533Z,12.52
2022-12-31T17:33:13.667Z,12.48
2022-12-31T17:35:45.071Z,12.57
2022-12-31T17:38:28.132Z,12.58
2022-12-31T17:43:40.639Z,12.60
2022-12-31T17:46:16.585Z,12.68
2022-12-31T17:48:49.852Z,12.84
2022-12-31T17:51:24.167Z,12.88
2022-12-31T17:53:51.625Z,12.62
2022-12-31T17:56:19.981Z,12.48
2022-12-31T17:58:51.653Z,12.71
2022-12-31T18:01:21.869Z,12.54
2022-12-31T18:03:51.034Z,12.65
2022-12-31T18:06:19.898Z,12.60
2022-12-31T18:08:49.745Z,12.43
2022-12-31T18:11:22.751Z,12.32
2022-12-31T18:13:50.002Z,12.18
2022-12-31T18:16:17.115Z,12.12
2022-12-31T18:18:45.652Z,12.07
2022-12-31T18:21:43.092Z,12.07
2022-12-31T18:24:24.235Z,11.98
2022-12-31T18:26:52.864Z,11.90
2022-12-31T18:29:20.213Z,11.88
2022-12-31T18:31:49.483Z,11.81
2022-12-31T18:34:27.412Z,11.74
2022-12-31T18:37:02.176Z,11.73
2022-12-31T18:39:29.201Z,11.70
2022-12-31T18:41:58.246Z,11.64
2022-12-31T18:44:27.306Z,11.62
2022-12-31T18:46:54.176Z,11.64
2022-12-31T18:49:24.054Z,11.93
2022-12-31T18:51:54.316Z,11.84
2022-12-31T18:54:21.716Z,11.70
2022-12-31T18:56:53.921Z,11.69
2022-12-31T18:59:26.524Z,11.55
2022-12-31T19:01:58.778Z,11.44
2022-12-31T19:04:28.498Z,11.48
2022-12-31T19:06:59.164Z,11.88
2022-12-31T19:12:16.424Z,11.45
2022-12-31T19:14:49.446Z,11.48
2022-12-31T19:17:19.386Z,11.88
2022-12-31T19:19:46.286Z,11.78
2022-12-31T19:22:16.483Z,11.54
2022-12-31T19:24:45.281Z,11.41
2022-12-31T19:27:17.242Z,11.31
2022-12-31T19:29:45.512Z,11.21
2022-12-31T19:32:12.711Z,11.51
2022-12-31T19:34:53.703Z,11.32
2022-12-31T19:37:20.666Z,11.18
2022-12-31T19:39:49.333Z,11.05
2022-12-31T19:42:17.023Z,10.95
2022-12-31T19:44:46.426Z,10.92
2022-12-31T19:47:15.022Z,10.87
2022-12-31T19:49:41.915Z,10.88
2022-12-31T19:52:08.726Z,10.86
2022-12-31T19:54:37.182Z,10.93
2022-12-31T19:57:29.634Z,10.80
2022-12-31T19:59:58.935Z,10.91
2022-12-31T20:02:31.198Z,11.19
2022-12-31T20:05:01.198Z,11.02
2022-12-31T20:07:37.297Z,11.03
2022-12-31T20:10:08.215Z,11.22
2022-12-31T20:12:42.320Z,11.14
2022-12-31T20:15:12.604Z,11.17
2022-12-31T20:17:46.909Z,11.39
2022-12-31T20:20:14.023Z,11.41
2022-12-31T20:22:50.564Z,11.37
2022-12-31T20:25:17.904Z,11.30
2022-12-31T20:27:47.763Z,11.32
2022-12-31T20:30:16.702Z,11.28
2022-12-31T20:32:52.860Z,11.23
2022-12-31T20:35:20.601Z,11.21
2022-12-31T20:37:51.265Z,11.15
2022-12-31T20:40:18.149Z,11.21
2022-12-31T20:42:44.920Z,11.21
2022-12-31T20:45:12.103Z,11.12
2022-12-31T20:47:44.340Z,10.99
2022-12-31T20:50:12.443Z,11.02
2022-12-31T20:52:41.307Z,10.99
2022-12-31T20:55:13.958Z,10.96
2022-12-31T20:57:44.045Z,10.86
2022-12-31T21:00:16.597Z,10.76
2022-12-31T21:03:03.917Z,10.88
2022-12-31T21:05:40.142Z,11.00
2022-12-31T21:08:07.269Z,11.11
2022-12-31T21:10:36.809Z,11.02
2022-12-31T21:13:06.097Z,10.91
2022-12-31T21:15:34.310Z,11.23
2022-12-31T21:18:01.238Z,11.48
2022-12-31T21:20:28.200Z,11.27
2022-12-31T21:23:01.542Z,10.98
2022-12-31T21:25:28.752Z,10.72
2022-12-31T21:27:55.797Z,10.50
2022-12-31T21:30:29.528Z,10.47
2022-12-31T21:32:56.441Z,10.33
2022-12-31T21:35:48.400Z,10.30
2022-12-31T21:38:15.183Z,10.68
2022-12-31T21:40:42.368Z,10.48
2022-12-31T21:43:12.809Z,10.34
2022-12-31T21:46:01.282Z,10.64
2022-12-31T21:48:28.362Z,11.23
2022-12-31T21:51:10.118Z,11.13
2022-12-31T21:53:37.705Z,10.77
2022-12-31T21:56:12.250Z,10.56
2022-12-31T21:58:47.579Z,10.38
2022-12-31T22:01:38.608Z,10.30
2022-12-31T22:04:07.953Z,10.22
2022-12-31T22:06:46.451Z,10.24
2022-12-31T22:09:13.408Z,10.34
2022-12-31T22:11:42.791Z,10.42
2022-12-31T22:14:15.842Z,10.36
2022-12-31T22:16:46.936Z,10.16
2022-12-31T22:19:17.120Z,10.08
2022-12-31T22:21:44.116Z,10.02
2022-12-31T22:24:13.360Z,9.98
2022-12-31T22:26:46.678Z,9.96
2022-12-31T22:29:13.928Z,9.87
2022-12-31T22:31:44.465Z,9.84
2022-12-31T22:34:11.362Z,9.73
2022-12-31T22:36:38.209Z,9.70
2022-12-31T22:39:05.087Z,9.71
2022-12-31T22:41:32.121Z,9.69
2022-12-31T22:44:04.432Z,9.80
2022-12-31T22:46:36.140Z,9.70
2022-12-31T22:49:07.312Z,9.68
2022-12-31T22:51:56.859Z,9.64
2022-12-31T22:54:31.893Z,9.66
2022-12-31T22:56:58.878Z,9.64
2022-12-31T22:59:25.747Z,9.64
2022-12-31T23:02:16.699Z,9.63
2022-12-31T23:04:49.919Z,9.76
2022-12-31T23:07:19.212Z,9.56
2022-12-31T23:10:04.727Z,9.52
2022-12-31T23:12:31.764Z,9.55
2022-12-31T23:15:17.343Z,9.54
2022-12-31T23:18:07.124Z,9.66
2022-12-31T23:20:52.728Z,9.58
2022-12-31T23:26:02.334Z,9.50
2022-12-31T23:28:29.274Z,9.63
2022-12-31T23:30:56.259Z,9.62
2022-12-31T23:33:26.925Z,9.60
2022-12-31T23:36:12.842Z,9.55
2022-12-31T23:38:39.818Z,9.81
2022-12-31T23:41:14.632Z,9.58
2022-12-31T23:43:47.519Z,9.52
2022-12-31T23:46:16.217Z,9.55
2022-12-31T23:48:43.837Z,9.51
2022-12-31T23:51:16.978Z,9.46
2022-12-31T23:53:43.835Z,9.46
2022-12-31T23:56:23.357Z,9.48
2022-12-31T23:58:55.955Z,9.47
